DAUADAUI

Guest
Details From DAUA - TOUAT CHEIKH SIDI MOHAMED BELKEBIR
To DAUI - IN SALAH
Flight Number -
Tags generated
Created
Modified
Stats Distance 151 nm / 279 km
Max Altitude 9,500 ft / 2,896 m
Waypoints 4
Social Downloads 0
Likes 0
Share VATSIM

Download

Looking for another format? Having issues loading an existing format? Contact us
Advertisement - Login to hide

Notes

Basic altitude profile: - Ascent Rate: 2500ft/min - Ascent Speed: 250kts - Cruise Altitude: 35000ft - Cruise Speed: 420kts - Descent Rate: 1500ft/min - Descent Speed: 250kts Options: - Use NATs: yes - Use PACOTS: yes - Use low airways: yes - Use high airways: yes

Route

DAUA ADR J41 NSL DAUI

ID Type Via Altitude Latitude Longitude Leg Dist Tot Dist Heading (true) Name
O DAUA APT - 0 ft / 0 m 27.83764˚ -0.18639˚ - 0 nm - TOUAT CHEIKH SIDI MOHAMED BELKEBIR
ADR VOR - 500 ft / 152 m 27.81704˚ -0.20587˚ 1 nm 1 nm 220° / 220° ADRAR VOR-DME
NSL VOR J41 (AWY-LO) 9,500 ft / 2,896 m 27.23667˚ 2.49250˚ 147 nm 149 nm 103° / 104° IN SALAH VOR-DME
O DAUI APT - 0 ft / 0 m 27.25102˚ 2.51202˚ 1 nm 150 nm 50° / 50° IN SALAH

Altitude Profile

Advertisement - Login to hide

DAUA

Details ICAO DAUA (AZR)
Name TOUAT CHEIKH SIDI MOHAMED BELKEBIR
Region Algeria
Timezone Africa/Algiers (UTC+1.0)
Stats Elevation 919 ft / 280 m (AMSL)
Location 27.837639° -0.186389°
Runways 1
Magnetic Variation 0.046° W

METAR

DAUA 240800Z 26004KT CAVOK 28/// Q1012

Decode

TAF

TAF DAUA 240500Z 2406/2506 14008KT CAVOK BECMG 2407/2410 26012KT PROB30 TEMPO 2414/2418 24015G25KT 5000 DRSA BECMG 2420/2423 VRB02KT

Decode

Departure Runways

ID Width Length Bearing (true) Bearing (mag) Surface Threshold Offset Overrun Length
04 148 ft / 45 m 9,857 ft / 3,005 m 39.53° 39.58° Asphalt 0 ft / 0 m 0 ft / 0 m
22 148 ft / 45 m 9,857 ft / 3,005 m 219.54° 219.59° Asphalt 0 ft / 0 m 0 ft / 0 m

DAUI

Details ICAO DAUI (INZ)
Name IN SALAH
Region Algeria
Timezone Africa/Algiers (UTC+1.0)
Stats Elevation 896 ft / 273 m (AMSL)
Location 27.251021° 2.512018°
Runways 1
Magnetic Variation 0.481° E

METAR

DAUI 240800Z 11012KT CAVOK 31/M00 Q1013

Decode

TAF

TAF DAUI 240500Z 2406/2506 VRB02KT CAVOK BECMG 2407/2410 22010KT BECMG 2420/2423 VRB02KT

Decode

Destination Runways

ID Width Length Bearing (true) Bearing (mag) Surface Threshold Offset Overrun Length
05 148 ft / 45 m 9,827 ft / 2,995 m 50.81° 50.33° Asphalt 0 ft / 0 m 150 ft / 46 m
23 148 ft / 45 m 9,827 ft / 2,995 m 230.82° 230.34° Asphalt 0 ft / 0 m 150 ft / 46 m